sensor_id;sensor_type;location;lat;lon;timestamp;P1;durP1;ratioP1;P2;durP2;ratioP2
6394;SDS011;3230;42.588;23.358;2022-12-07T00:02:01;51.83;;;25.83;;
6394;SDS011;3230;42.588;23.358;2022-12-07T00:04:26;53.13;;;25.53;;
6394;SDS011;3230;42.588;23.358;2022-12-07T00:06:52;50.47;;;25.10;;
6394;SDS011;3230;42.588;23.358;2022-12-07T00:09:18;48.80;;;23.83;;
6394;SDS011;3230;42.588;23.358;2022-12-07T00:11:44;48.55;;;23.13;;
6394;SDS011;3230;42.588;23.358;2022-12-07T00:14:14;45.85;;;23.85;;
6394;SDS011;3230;42.588;23.358;2022-12-07T00:16:41;56.45;;;26.52;;
6394;SDS011;3230;42.588;23.358;2022-12-07T00:19:09;68.43;;;29.00;;
6394;SDS011;3230;42.588;23.358;2022-12-07T00:21:37;69.13;;;29.42;;
6394;SDS011;3230;42.588;23.358;2022-12-07T00:24:03;71.28;;;27.63;;
6394;SDS011;3230;42.588;23.358;2022-12-07T00:26:30;43.13;;;22.60;;
6394;SDS011;3230;42.588;23.358;2022-12-07T00:28:59;57.70;;;27.10;;
6394;SDS011;3230;42.588;23.358;2022-12-07T00:31:26;38.55;;;18.25;;
6394;SDS011;3230;42.588;23.358;2022-12-07T00:33:53;52.13;;;23.20;;
6394;SDS011;3230;42.588;23.358;2022-12-07T00:36:20;39.77;;;20.00;;
6394;SDS011;3230;42.588;23.358;2022-12-07T00:38:47;50.47;;;24.63;;
6394;SDS011;3230;42.588;23.358;2022-12-07T00:41:14;58.43;;;26.23;;
6394;SDS011;3230;42.588;23.358;2022-12-07T00:43:41;82.50;;;33.92;;
6394;SDS011;3230;42.588;23.358;2022-12-07T00:46:08;68.47;;;30.27;;
6394;SDS011;3230;42.588;23.358;2022-12-07T00:48:34;71.03;;;28.75;;
6394;SDS011;3230;42.588;23.358;2022-12-07T00:51:00;56.30;;;26.10;;
6394;SDS011;3230;42.588;23.358;2022-12-07T00:53:26;42.05;;;19.45;;
6394;SDS011;3230;42.588;23.358;2022-12-07T00:55:52;36.78;;;18.33;;
6394;SDS011;3230;42.588;23.358;2022-12-07T00:58:19;40.35;;;18.00;;
6394;SDS011;3230;42.588;23.358;2022-12-07T01:00:45;34.20;;;17.63;;
6394;SDS011;3230;42.588;23.358;2022-12-07T01:03:11;31.37;;;17.07;;
6394;SDS011;3230;42.588;23.358;2022-12-07T01:05:39;37.05;;;19.80;;
6394;SDS011;3230;42.588;23.358;2022-12-07T01:08:04;35.80;;;19.80;;
6394;SDS011;3230;42.588;23.358;2022-12-07T01:10:31;31.73;;;18.90;;
6394;SDS011;3230;42.588;23.358;2022-12-07T01:12:57;34.30;;;21.40;;
6394;SDS011;3230;42.588;23.358;2022-12-07T01:15:23;36.65;;;21.20;;
6394;SDS011;3230;42.588;23.358;2022-12-07T01:17:48;42.33;;;19.00;;
6394;SDS011;3230;42.588;23.358;2022-12-07T01:20:14;39.77;;;18.50;;
6394;SDS011;3230;42.588;23.358;2022-12-07T01:22:41;38.47;;;17.40;;
6394;SDS011;3230;42.588;23.358;2022-12-07T01:25:07;32.22;;;14.85;;
6394;SDS011;3230;42.588;23.358;2022-12-07T01:27:34;33.00;;;15.30;;
6394;SDS011;3230;42.588;23.358;2022-12-07T01:30:00;28.47;;;10.80;;
6394;SDS011;3230;42.588;23.358;2022-12-07T01:32:26;30.33;;;13.77;;
6394;SDS011;3230;42.588;23.358;2022-12-07T01:34:52;26.52;;;13.80;;
6394;SDS011;3230;42.588;23.358;2022-12-07T01:37:17;30.63;;;14.07;;
6394;SDS011;3230;42.588;23.358;2022-12-07T01:39:43;27.43;;;13.20;;
6394;SDS011;3230;42.588;23.358;2022-12-07T01:42:12;24.33;;;13.23;;
6394;SDS011;3230;42.588;23.358;2022-12-07T01:47:41;23.58;;;12.25;;
6394;SDS011;3230;42.588;23.358;2022-12-07T01:50:08;26.38;;;12.30;;
6394;SDS011;3230;42.588;23.358;2022-12-07T01:52:34;22.05;;;12.88;;
6394;SDS011;3230;42.588;23.358;2022-12-07T01:55:06;33.65;;;13.93;;
6394;SDS011;3230;42.588;23.358;2022-12-07T01:57:34;35.70;;;19.10;;
6394;SDS011;3230;42.588;23.358;2022-12-07T02:00:04;32.65;;;16.90;;
6394;SDS011;3230;42.588;23.358;2022-12-07T02:02:35;32.78;;;16.65;;
6394;SDS011;3230;42.588;23.358;2022-12-07T02:05:06;29.63;;;15.30;;
6394;SDS011;3230;42.588;23.358;2022-12-07T02:07:32;33.20;;;18.33;;
6394;SDS011;3230;42.588;23.358;2022-12-07T02:12:50;27.45;;;14.48;;
6394;SDS011;3230;42.588;23.358;2022-12-07T02:15:30;36.92;;;17.60;;
6394;SDS011;3230;42.588;23.358;2022-12-07T02:18:09;37.67;;;18.15;;
6394;SDS011;3230;42.588;23.358;2022-12-07T02:21:02;32.65;;;17.33;;
6394;SDS011;3230;42.588;23.358;2022-12-07T02:28:36;26.95;;;10.95;;
6394;SDS011;3230;42.588;23.358;2022-12-07T02:31:11;22.73;;;11.15;;
6394;SDS011;3230;42.588;23.358;2022-12-07T02:33:45;36.83;;;13.10;;
6394;SDS011;3230;42.588;23.358;2022-12-07T02:36:17;19.40;;;9.55;;
6394;SDS011;3230;42.588;23.358;2022-12-07T02:38:59;22.35;;;11.20;;
6394;SDS011;3230;42.588;23.358;2022-12-07T02:41:36;23.25;;;9.70;;
6394;SDS011;3230;42.588;23.358;2022-12-07T02:44:16;18.08;;;9.55;;
6394;SDS011;3230;42.588;23.358;2022-12-07T02:47:18;20.40;;;9.90;;
6394;SDS011;3230;42.588;23.358;2022-12-07T02:49:39;20.98;;;10.05;;
6394;SDS011;3230;42.588;23.358;2022-12-07T02:52:05;22.42;;;9.90;;
6394;SDS011;3230;42.588;23.358;2022-12-07T02:54:30;21.53;;;10.10;;
6394;SDS011;3230;42.588;23.358;2022-12-07T02:56:58;22.00;;;11.10;;
6394;SDS011;3230;42.588;23.358;2022-12-07T03:02:27;40.10;;;20.75;;
6394;SDS011;3230;42.588;23.358;2022-12-07T03:18:55;62.45;;;25.88;;
6394;SDS011;3230;42.588;23.358;2022-12-07T03:21:26;94.50;;;36.30;;
6394;SDS011;3230;42.588;23.358;2022-12-07T03:23:56;40.72;;;19.00;;
6394;SDS011;3230;42.588;23.358;2022-12-07T03:26:28;27.48;;;12.73;;
6394;SDS011;3230;42.588;23.358;2022-12-07T03:28:58;25.17;;;11.48;;
6394;SDS011;3230;42.588;23.358;2022-12-07T03:31:35;18.85;;;8.90;;
6394;SDS011;3230;42.588;23.358;2022-12-07T03:34:11;18.10;;;8.77;;
6394;SDS011;3230;42.588;23.358;2022-12-07T03:36:47;25.30;;;12.25;;
6394;SDS011;3230;42.588;23.358;2022-12-07T03:39:26;22.50;;;12.13;;
6394;SDS011;3230;42.588;23.358;2022-12-07T03:42:03;24.65;;;12.93;;
6394;SDS011;3230;42.588;23.358;2022-12-07T03:44:32;23.70;;;12.30;;
6394;SDS011;3230;42.588;23.358;2022-12-07T03:54:58;25.90;;;13.82;;
6394;SDS011;3230;42.588;23.358;2022-12-07T03:57:25;40.58;;;20.42;;
6394;SDS011;3230;42.588;23.358;2022-12-07T03:59:54;36.75;;;17.40;;
6394;SDS011;3230;42.588;23.358;2022-12-07T04:02:21;36.03;;;19.10;;
6394;SDS011;3230;42.588;23.358;2022-12-07T04:04:48;20.92;;;13.00;;
6394;SDS011;3230;42.588;23.358;2022-12-07T04:07:14;19.33;;;10.47;;
6394;SDS011;3230;42.588;23.358;2022-12-07T04:09:40;20.90;;;11.07;;
6394;SDS011;3230;42.588;23.358;2022-12-07T04:12:05;20.77;;;10.47;;
6394;SDS011;3230;42.588;23.358;2022-12-07T04:14:31;25.37;;;12.00;;
6394;SDS011;3230;42.588;23.358;2022-12-07T04:16:57;20.20;;;12.40;;
6394;SDS011;3230;42.588;23.358;2022-12-07T04:19:24;24.70;;;12.40;;
6394;SDS011;3230;42.588;23.358;2022-12-07T04:21:51;21.40;;;12.60;;
6394;SDS011;3230;42.588;23.358;2022-12-07T04:24:17;20.83;;;12.00;;
6394;SDS011;3230;42.588;23.358;2022-12-07T04:26:43;20.57;;;10.30;;
6394;SDS011;3230;42.588;23.358;2022-12-07T04:29:09;19.30;;;10.00;;
6394;SDS011;3230;42.588;23.358;2022-12-07T04:31:36;16.58;;;10.50;;
6394;SDS011;3230;42.588;23.358;2022-12-07T04:34:02;18.75;;;9.63;;
6394;SDS011;3230;42.588;23.358;2022-12-07T04:36:28;19.33;;;10.32;;
6394;SDS011;3230;42.588;23.358;2022-12-07T04:38:54;22.63;;;11.00;;
6394;SDS011;3230;42.588;23.358;2022-12-07T04:41:20;28.10;;;13.75;;
6394;SDS011;3230;42.588;23.358;2022-12-07T04:43:52;23.80;;;13.40;;
6394;SDS011;3230;42.588;23.358;2022-12-07T04:46:22;21.90;;;12.45;;
6394;SDS011;3230;42.588;23.358;2022-12-07T04:48:49;29.02;;;14.50;;
6394;SDS011;3230;42.588;23.358;2022-12-07T04:51:18;25.83;;;14.33;;
6394;SDS011;3230;42.588;23.358;2022-12-07T04:53:45;26.08;;;14.73;;
6394;SDS011;3230;42.588;23.358;2022-12-07T04:56:11;25.83;;;14.90;;
6394;SDS011;3230;42.588;23.358;2022-12-07T04:58:37;20.77;;;12.00;;
6394;SDS011;3230;42.588;23.358;2022-12-07T05:01:02;21.67;;;11.80;;
6394;SDS011;3230;42.588;23.358;2022-12-07T05:03:28;26.53;;;11.97;;
6394;SDS011;3230;42.588;23.358;2022-12-07T05:05:53;15.20;;;8.53;;
6394;SDS011;3230;42.588;23.358;2022-12-07T05:08:18;13.53;;;7.43;;
6394;SDS011;3230;42.588;23.358;2022-12-07T05:10:44;12.50;;;6.00;;
6394;SDS011;3230;42.588;23.358;2022-12-07T05:13:09;8.77;;;5.10;;
6394;SDS011;3230;42.588;23.358;2022-12-07T05:15:35;10.50;;;5.50;;
6394;SDS011;3230;42.588;23.358;2022-12-07T05:18:00;10.40;;;5.70;;
6394;SDS011;3230;42.588;23.358;2022-12-07T05:20:25;19.10;;;6.70;;
6394;SDS011;3230;42.588;23.358;2022-12-07T05:22:51;13.00;;;7.00;;
6394;SDS011;3230;42.588;23.358;2022-12-07T05:25:16;15.33;;;6.97;;
6394;SDS011;3230;42.588;23.358;2022-12-07T05:27:42;21.70;;;10.30;;
6394;SDS011;3230;42.588;23.358;2022-12-07T05:30:07;75.70;;;31.10;;
6394;SDS011;3230;42.588;23.358;2022-12-07T05:32:33;83.20;;;39.67;;
6394;SDS011;3230;42.588;23.358;2022-12-07T05:34:58;68.73;;;33.20;;
6394;SDS011;3230;42.588;23.358;2022-12-07T05:37:24;27.50;;;15.40;;
6394;SDS011;3230;42.588;23.358;2022-12-07T05:39:49;16.40;;;9.00;;
6394;SDS011;3230;42.588;23.358;2022-12-07T05:42:15;10.87;;;6.77;;
6394;SDS011;3230;42.588;23.358;2022-12-07T05:44:45;16.58;;;8.30;;
6394;SDS011;3230;42.588;23.358;2022-12-07T05:47:12;14.68;;;7.40;;
6394;SDS011;3230;42.588;23.358;2022-12-07T05:49:38;21.15;;;9.80;;
6394;SDS011;3230;42.588;23.358;2022-12-07T05:52:04;21.60;;;10.77;;
6394;SDS011;3230;42.588;23.358;2022-12-07T05:54:29;25.97;;;13.90;;
6394;SDS011;3230;42.588;23.358;2022-12-07T05:56:55;47.00;;;21.30;;
6394;SDS011;3230;42.588;23.358;2022-12-07T05:59:21;44.50;;;20.70;;
6394;SDS011;3230;42.588;23.358;2022-12-07T06:04:23;43.53;;;17.65;;
6394;SDS011;3230;42.588;23.358;2022-12-07T06:06:49;33.33;;;17.83;;
6394;SDS011;3230;42.588;23.358;2022-12-07T06:09:16;31.93;;;17.13;;
6394;SDS011;3230;42.588;23.358;2022-12-07T06:11:43;25.05;;;14.55;;
6394;SDS011;3230;42.588;23.358;2022-12-07T06:14:27;22.05;;;14.20;;
6394;SDS011;3230;42.588;23.358;2022-12-07T06:16:53;61.83;;;29.23;;
6394;SDS011;3230;42.588;23.358;2022-12-07T06:19:19;62.78;;;33.25;;
6394;SDS011;3230;42.588;23.358;2022-12-07T06:21:45;56.27;;;29.73;;
6394;SDS011;3230;42.588;23.358;2022-12-07T06:24:11;43.43;;;22.63;;
6394;SDS011;3230;42.588;23.358;2022-12-07T06:26:37;40.45;;;23.23;;
6394;SDS011;3230;42.588;23.358;2022-12-07T06:29:03;45.10;;;21.90;;
6394;SDS011;3230;42.588;23.358;2022-12-07T06:31:29;34.70;;;18.17;;
6394;SDS011;3230;42.588;23.358;2022-12-07T06:34:01;30.47;;;16.90;;
6394;SDS011;3230;42.588;23.358;2022-12-07T06:36:29;38.72;;;19.83;;
6394;SDS011;3230;42.588;23.358;2022-12-07T06:38:55;41.00;;;23.20;;
6394;SDS011;3230;42.588;23.358;2022-12-07T06:41:20;27.50;;;14.97;;
6394;SDS011;3230;42.588;23.358;2022-12-07T06:43:46;29.80;;;15.57;;
6394;SDS011;3230;42.588;23.358;2022-12-07T06:46:12;32.67;;;18.90;;
6394;SDS011;3230;42.588;23.358;2022-12-07T06:48:39;37.35;;;23.73;;
6394;SDS011;3230;42.588;23.358;2022-12-07T06:51:05;19.25;;;10.40;;
6394;SDS011;3230;42.588;23.358;2022-12-07T06:53:30;38.03;;;16.10;;
6394;SDS011;3230;42.588;23.358;2022-12-07T06:55:56;50.93;;;28.50;;
6394;SDS011;3230;42.588;23.358;2022-12-07T06:58:21;44.53;;;23.10;;
6394;SDS011;3230;42.588;23.358;2022-12-07T07:00:47;93.23;;;45.03;;
6394;SDS011;3230;42.588;23.358;2022-12-07T07:03:14;59.78;;;30.30;;
6394;SDS011;3230;42.588;23.358;2022-12-07T07:05:39;53.20;;;28.17;;
6394;SDS011;3230;42.588;23.358;2022-12-07T07:08:05;54.63;;;26.40;;
6394;SDS011;3230;42.588;23.358;2022-12-07T07:10:30;68.37;;;31.20;;
6394;SDS011;3230;42.588;23.358;2022-12-07T07:12:56;59.13;;;33.40;;
6394;SDS011;3230;42.588;23.358;2022-12-07T07:15:21;70.60;;;37.60;;
6394;SDS011;3230;42.588;23.358;2022-12-07T07:17:47;85.03;;;39.70;;
6394;SDS011;3230;42.588;23.358;2022-12-07T07:20:12;63.80;;;33.43;;
6394;SDS011;3230;42.588;23.358;2022-12-07T07:22:38;45.27;;;26.10;;
6394;SDS011;3230;42.588;23.358;2022-12-07T07:25:03;50.63;;;28.27;;
6394;SDS011;3230;42.588;23.358;2022-12-07T07:27:29;67.50;;;33.53;;
6394;SDS011;3230;42.588;23.358;2022-12-07T07:29:54;62.60;;;34.00;;
6394;SDS011;3230;42.588;23.358;2022-12-07T07:32:20;62.80;;;32.60;;
6394;SDS011;3230;42.588;23.358;2022-12-07T07:34:47;52.77;;;29.70;;
6394;SDS011;3230;42.588;23.358;2022-12-07T07:37:12;26.93;;;14.97;;
6394;SDS011;3230;42.588;23.358;2022-12-07T07:39:38;23.10;;;12.40;;
6394;SDS011;3230;42.588;23.358;2022-12-07T07:42:04;25.13;;;13.80;;
6394;SDS011;3230;42.588;23.358;2022-12-07T07:44:29;13.53;;;7.83;;
6394;SDS011;3230;42.588;23.358;2022-12-07T07:46:55;13.47;;;7.43;;
6394;SDS011;3230;42.588;23.358;2022-12-07T07:49:20;18.80;;;9.00;;
6394;SDS011;3230;42.588;23.358;2022-12-07T07:51:45;30.63;;;13.37;;
6394;SDS011;3230;42.588;23.358;2022-12-07T07:54:11;37.27;;;18.60;;
6394;SDS011;3230;42.588;23.358;2022-12-07T07:56:36;31.07;;;17.53;;
6394;SDS011;3230;42.588;23.358;2022-12-07T07:59:02;40.07;;;22.03;;
6394;SDS011;3230;42.588;23.358;2022-12-07T08:01:27;54.03;;;31.27;;
6394;SDS011;3230;42.588;23.358;2022-12-07T08:03:53;28.00;;;16.10;;
6394;SDS011;3230;42.588;23.358;2022-12-07T08:06:18;34.83;;;20.23;;
6394;SDS011;3230;42.588;23.358;2022-12-07T08:08:44;35.60;;;19.50;;
6394;SDS011;3230;42.588;23.358;2022-12-07T08:11:09;32.40;;;19.37;;
6394;SDS011;3230;42.588;23.358;2022-12-07T08:13:35;30.40;;;17.10;;
6394;SDS011;3230;42.588;23.358;2022-12-07T08:16:04;34.57;;;20.00;;
6394;SDS011;3230;42.588;23.358;2022-12-07T08:18:36;37.22;;;21.13;;
6394;SDS011;3230;42.588;23.358;2022-12-07T08:21:02;54.57;;;28.50;;
6394;SDS011;3230;42.588;23.358;2022-12-07T08:23:29;36.43;;;22.40;;
6394;SDS011;3230;42.588;23.358;2022-12-07T08:25:54;35.00;;;19.73;;
6394;SDS011;3230;42.588;23.358;2022-12-07T08:28:20;30.93;;;18.03;;
6394;SDS011;3230;42.588;23.358;2022-12-07T08:30:45;34.10;;;18.90;;
6394;SDS011;3230;42.588;23.358;2022-12-07T08:33:12;31.20;;;17.93;;
6394;SDS011;3230;42.588;23.358;2022-12-07T08:35:38;37.07;;;21.40;;
6394;SDS011;3230;42.588;23.358;2022-12-07T08:38:03;36.70;;;21.03;;
6394;SDS011;3230;42.588;23.358;2022-12-07T08:40:29;27.90;;;14.60;;
6394;SDS011;3230;42.588;23.358;2022-12-07T08:42:54;21.77;;;11.70;;
6394;SDS011;3230;42.588;23.358;2022-12-07T08:45:20;24.90;;;12.80;;
6394;SDS011;3230;42.588;23.358;2022-12-07T08:47:55;25.23;;;12.83;;
6394;SDS011;3230;42.588;23.358;2022-12-07T08:50:26;27.10;;;11.57;;
6394;SDS011;3230;42.588;23.358;2022-12-07T08:52:52;22.77;;;12.03;;
6394;SDS011;3230;42.588;23.358;2022-12-07T08:55:21;33.00;;;15.30;;
6394;SDS011;3230;42.588;23.358;2022-12-07T08:57:47;25.07;;;13.77;;
6394;SDS011;3230;42.588;23.358;2022-12-07T09:00:13;27.37;;;15.57;;
6394;SDS011;3230;42.588;23.358;2022-12-07T09:02:39;43.37;;;19.43;;
6394;SDS011;3230;42.588;23.358;2022-12-07T09:05:05;39.03;;;21.13;;
6394;SDS011;3230;42.588;23.358;2022-12-07T09:07:31;53.00;;;25.13;;
6394;SDS011;3230;42.588;23.358;2022-12-07T09:09:58;31.93;;;18.20;;
6394;SDS011;3230;42.588;23.358;2022-12-07T09:12:24;33.17;;;16.27;;
6394;SDS011;3230;42.588;23.358;2022-12-07T09:14:50;12.63;;;7.00;;
6394;SDS011;3230;42.588;23.358;2022-12-07T09:17:15;19.27;;;10.27;;
6394;SDS011;3230;42.588;23.358;2022-12-07T09:19:41;21.20;;;9.20;;
6394;SDS011;3230;42.588;23.358;2022-12-07T09:22:07;13.93;;;6.73;;
6394;SDS011;3230;42.588;23.358;2022-12-07T09:24:34;20.53;;;10.20;;
6394;SDS011;3230;42.588;23.358;2022-12-07T09:26:59;17.07;;;9.27;;
6394;SDS011;3230;42.588;23.358;2022-12-07T09:29:25;18.43;;;10.67;;
6394;SDS011;3230;42.588;23.358;2022-12-07T09:31:51;28.53;;;12.67;;
6394;SDS011;3230;42.588;23.358;2022-12-07T09:34:17;22.37;;;10.00;;
6394;SDS011;3230;42.588;23.358;2022-12-07T09:36:42;20.70;;;11.37;;
6394;SDS011;3230;42.588;23.358;2022-12-07T09:39:08;23.23;;;12.70;;
6394;SDS011;3230;42.588;23.358;2022-12-07T09:41:37;19.60;;;11.10;;
6394;SDS011;3230;42.588;23.358;2022-12-07T09:44:10;23.20;;;12.20;;
6394;SDS011;3230;42.588;23.358;2022-12-07T09:46:38;23.30;;;13.83;;
6394;SDS011;3230;42.588;23.358;2022-12-07T09:49:08;36.70;;;19.07;;
6394;SDS011;3230;42.588;23.358;2022-12-07T09:51:41;40.53;;;19.60;;
6394;SDS011;3230;42.588;23.358;2022-12-07T09:54:07;38.20;;;19.10;;
6394;SDS011;3230;42.588;23.358;2022-12-07T09:56:37;30.30;;;17.43;;
6394;SDS011;3230;42.588;23.358;2022-12-07T09:59:02;27.83;;;12.50;;
6394;SDS011;3230;42.588;23.358;2022-12-07T10:01:29;23.03;;;13.87;;
6394;SDS011;3230;42.588;23.358;2022-12-07T10:04:09;26.33;;;12.23;;
6394;SDS011;3230;42.588;23.358;2022-12-07T10:06:38;21.30;;;11.27;;
6394;SDS011;3230;42.588;23.358;2022-12-07T10:09:14;28.83;;;12.93;;
6394;SDS011;3230;42.588;23.358;2022-12-07T10:14:25;14.83;;;7.33;;
6394;SDS011;3230;42.588;23.358;2022-12-07T10:16:54;9.67;;;5.80;;
6394;SDS011;3230;42.588;23.358;2022-12-07T10:24:28;13.17;;;6.23;;
6394;SDS011;3230;42.588;23.358;2022-12-07T10:26:53;16.43;;;6.00;;
6394;SDS011;3230;42.588;23.358;2022-12-07T10:29:29;14.00;;;5.30;;
6394;SDS011;3230;42.588;23.358;2022-12-07T10:34:41;9.40;;;4.70;;
6394;SDS011;3230;42.588;23.358;2022-12-07T10:42:22;8.40;;;4.53;;
6394;SDS011;3230;42.588;23.358;2022-12-07T10:44:50;7.30;;;4.40;;
6394;SDS011;3230;42.588;23.358;2022-12-07T10:50:26;9.90;;;5.50;;
6394;SDS011;3230;42.588;23.358;2022-12-07T11:14:52;23.07;;;10.60;;
6394;SDS011;3230;42.588;23.358;2022-12-07T11:17:30;11.57;;;6.90;;
6394;SDS011;3230;42.588;23.358;2022-12-07T11:34:22;40.87;;;23.83;;
6394;SDS011;3230;42.588;23.358;2022-12-07T11:36:48;17.90;;;8.90;;
6394;SDS011;3230;42.588;23.358;2022-12-07T11:39:26;21.40;;;9.20;;
6394;SDS011;3230;42.588;23.358;2022-12-07T11:42:04;13.17;;;7.30;;
6394;SDS011;3230;42.588;23.358;2022-12-07T11:55:54;20.30;;;10.13;;
6394;SDS011;3230;42.588;23.358;2022-12-07T11:58:40;13.67;;;6.80;;
6394;SDS011;3230;42.588;23.358;2022-12-07T12:01:13;12.97;;;7.47;;
6394;SDS011;3230;42.588;23.358;2022-12-07T12:03:48;21.83;;;8.90;;
6394;SDS011;3230;42.588;23.358;2022-12-07T12:06:16;17.23;;;8.30;;
6394;SDS011;3230;42.588;23.358;2022-12-07T12:16:59;16.50;;;8.93;;
6394;SDS011;3230;42.588;23.358;2022-12-07T12:22:41;38.87;;;20.60;;
6394;SDS011;3230;42.588;23.358;2022-12-07T12:25:29;61.53;;;33.53;;
6394;SDS011;3230;42.588;23.358;2022-12-07T12:28:01;41.40;;;20.30;;
6394;SDS011;3230;42.588;23.358;2022-12-07T12:30:38;34.03;;;16.80;;
6394;SDS011;3230;42.588;23.358;2022-12-07T12:33:50;26.20;;;14.17;;
6394;SDS011;3230;42.588;23.358;2022-12-07T12:46:47;23.40;;;11.20;;
6394;SDS011;3230;42.588;23.358;2022-12-07T12:54:14;11.93;;;5.80;;
6394;SDS011;3230;42.588;23.358;2022-12-07T12:56:49;12.00;;;5.07;;
6394;SDS011;3230;42.588;23.358;2022-12-07T12:59:26;13.80;;;6.67;;
6394;SDS011;3230;42.588;23.358;2022-12-07T13:10:29;10.97;;;6.07;;
6394;SDS011;3230;42.588;23.358;2022-12-07T13:20:57;27.40;;;12.37;;
6394;SDS011;3230;42.588;23.358;2022-12-07T13:34:05;21.67;;;9.70;;
6394;SDS011;3230;42.588;23.358;2022-12-07T13:36:54;18.07;;;8.77;;
6394;SDS011;3230;42.588;23.358;2022-12-07T13:39:21;19.23;;;6.83;;
6394;SDS011;3230;42.588;23.358;2022-12-07T13:41:52;21.33;;;10.50;;
6394;SDS011;3230;42.588;23.358;2022-12-07T13:44:23;17.60;;;9.57;;
6394;SDS011;3230;42.588;23.358;2022-12-07T13:49:46;19.47;;;6.97;;
6394;SDS011;3230;42.588;23.358;2022-12-07T13:52:18;14.20;;;6.60;;
6394;SDS011;3230;42.588;23.358;2022-12-07T13:54:49;15.03;;;8.40;;
6394;SDS011;3230;42.588;23.358;2022-12-07T13:57:29;23.30;;;11.07;;
6394;SDS011;3230;42.588;23.358;2022-12-07T13:59:57;36.93;;;11.17;;
6394;SDS011;3230;42.588;23.358;2022-12-07T14:02:30;22.27;;;10.27;;
6394;SDS011;3230;42.588;23.358;2022-12-07T14:05:07;24.37;;;11.77;;
6394;SDS011;3230;42.588;23.358;2022-12-07T14:10:54;32.67;;;18.60;;
6394;SDS011;3230;42.588;23.358;2022-12-07T14:16:01;20.43;;;9.77;;
6394;SDS011;3230;42.588;23.358;2022-12-07T14:18:40;16.10;;;8.90;;
6394;SDS011;3230;42.588;23.358;2022-12-07T14:23:35;46.00;;;20.33;;
6394;SDS011;3230;42.588;23.358;2022-12-07T14:26:14;27.03;;;14.17;;
6394;SDS011;3230;42.588;23.358;2022-12-07T14:28:43;33.37;;;15.00;;
6394;SDS011;3230;42.588;23.358;2022-12-07T14:31:16;24.60;;;12.87;;
6394;SDS011;3230;42.588;23.358;2022-12-07T14:33:45;19.90;;;10.43;;
6394;SDS011;3230;42.588;23.358;2022-12-07T14:36:11;30.13;;;10.03;;
6394;SDS011;3230;42.588;23.358;2022-12-07T14:38:37;17.10;;;9.63;;
6394;SDS011;3230;42.588;23.358;2022-12-07T14:41:03;25.20;;;11.40;;
6394;SDS011;3230;42.588;23.358;2022-12-07T14:43:50;21.10;;;10.33;;
6394;SDS011;3230;42.588;23.358;2022-12-07T14:46:15;19.67;;;8.80;;
6394;SDS011;3230;42.588;23.358;2022-12-07T14:48:41;19.00;;;7.50;;
6394;SDS011;3230;42.588;23.358;2022-12-07T14:51:07;13.27;;;7.23;;
6394;SDS011;3230;42.588;23.358;2022-12-07T14:53:36;13.80;;;7.90;;
6394;SDS011;3230;42.588;23.358;2022-12-07T14:56:06;33.67;;;15.60;;
6394;SDS011;3230;42.588;23.358;2022-12-07T14:58:32;36.20;;;15.93;;
6394;SDS011;3230;42.588;23.358;2022-12-07T15:00:57;35.30;;;16.10;;
6394;SDS011;3230;42.588;23.358;2022-12-07T15:03:23;42.90;;;24.07;;
6394;SDS011;3230;42.588;23.358;2022-12-07T15:05:48;36.00;;;19.57;;
6394;SDS011;3230;42.588;23.358;2022-12-07T15:08:14;21.30;;;12.90;;
6394;SDS011;3230;42.588;23.358;2022-12-07T15:10:39;20.97;;;9.47;;
6394;SDS011;3230;42.588;23.358;2022-12-07T15:13:05;17.07;;;8.93;;
6394;SDS011;3230;42.588;23.358;2022-12-07T15:15:50;25.60;;;8.90;;
6394;SDS011;3230;42.588;23.358;2022-12-07T15:18:18;24.30;;;9.50;;
6394;SDS011;3230;42.588;23.358;2022-12-07T15:20:44;24.70;;;12.50;;
6394;SDS011;3230;42.588;23.358;2022-12-07T15:23:11;45.63;;;17.40;;
6394;SDS011;3230;42.588;23.358;2022-12-07T15:25:40;19.67;;;8.60;;
6394;SDS011;3230;42.588;23.358;2022-12-07T15:28:06;14.00;;;7.30;;
6394;SDS011;3230;42.588;23.358;2022-12-07T15:30:31;15.93;;;8.90;;
6394;SDS011;3230;42.588;23.358;2022-12-07T15:32:57;18.23;;;10.40;;
6394;SDS011;3230;42.588;23.358;2022-12-07T15:35:22;26.63;;;11.73;;
6394;SDS011;3230;42.588;23.358;2022-12-07T15:37:47;23.00;;;11.50;;
6394;SDS011;3230;42.588;23.358;2022-12-07T15:40:13;29.50;;;15.70;;
6394;SDS011;3230;42.588;23.358;2022-12-07T15:42:39;11.93;;;6.60;;
6394;SDS011;3230;42.588;23.358;2022-12-07T15:45:06;25.23;;;12.97;;
6394;SDS011;3230;42.588;23.358;2022-12-07T15:47:36;63.47;;;30.27;;
6394;SDS011;3230;42.588;23.358;2022-12-07T15:50:04;77.97;;;36.40;;
6394;SDS011;3230;42.588;23.358;2022-12-07T15:52:31;70.85;;;32.70;;
6394;SDS011;3230;42.588;23.358;2022-12-07T15:54:56;69.00;;;32.97;;
6394;SDS011;3230;42.588;23.358;2022-12-07T15:57:22;78.57;;;36.10;;
6394;SDS011;3230;42.588;23.358;2022-12-07T15:59:47;66.53;;;29.40;;
6394;SDS011;3230;42.588;23.358;2022-12-07T16:02:13;59.47;;;26.97;;
6394;SDS011;3230;42.588;23.358;2022-12-07T16:04:38;39.83;;;20.27;;
6394;SDS011;3230;42.588;23.358;2022-12-07T16:07:04;34.17;;;18.80;;
6394;SDS011;3230;42.588;23.358;2022-12-07T16:09:30;47.60;;;22.50;;
6394;SDS011;3230;42.588;23.358;2022-12-07T16:11:56;42.83;;;22.43;;
6394;SDS011;3230;42.588;23.358;2022-12-07T16:14:21;33.63;;;19.07;;
6394;SDS011;3230;42.588;23.358;2022-12-07T16:16:47;20.10;;;10.30;;
6394;SDS011;3230;42.588;23.358;2022-12-07T16:19:13;35.92;;;17.67;;
6394;SDS011;3230;42.588;23.358;2022-12-07T16:21:39;37.23;;;19.50;;
6394;SDS011;3230;42.588;23.358;2022-12-07T16:24:04;32.87;;;17.73;;
6394;SDS011;3230;42.588;23.358;2022-12-07T16:26:30;49.90;;;24.53;;
6394;SDS011;3230;42.588;23.358;2022-12-07T16:28:56;65.17;;;33.53;;
6394;SDS011;3230;42.588;23.358;2022-12-07T16:31:24;48.75;;;24.30;;
6394;SDS011;3230;42.588;23.358;2022-12-07T16:33:52;26.92;;;14.98;;
6394;SDS011;3230;42.588;23.358;2022-12-07T16:36:20;58.92;;;28.98;;
6394;SDS011;3230;42.588;23.358;2022-12-07T16:38:47;45.90;;;23.27;;
6394;SDS011;3230;42.588;23.358;2022-12-07T16:41:12;30.70;;;15.50;;
6394;SDS011;3230;42.588;23.358;2022-12-07T16:43:38;19.93;;;11.67;;
6394;SDS011;3230;42.588;23.358;2022-12-07T16:46:04;57.47;;;27.07;;
6394;SDS011;3230;42.588;23.358;2022-12-07T16:48:29;75.50;;;35.50;;
6394;SDS011;3230;42.588;23.358;2022-12-07T16:50:55;50.23;;;23.07;;
6394;SDS011;3230;42.588;23.358;2022-12-07T16:53:21;21.90;;;11.57;;
6394;SDS011;3230;42.588;23.358;2022-12-07T16:55:48;20.47;;;10.20;;
6394;SDS011;3230;42.588;23.358;2022-12-07T16:58:14;21.67;;;14.23;;
6394;SDS011;3230;42.588;23.358;2022-12-07T17:00:40;19.42;;;7.90;;
6394;SDS011;3230;42.588;23.358;2022-12-07T17:03:07;21.02;;;10.90;;
6394;SDS011;3230;42.588;23.358;2022-12-07T17:05:37;21.50;;;12.38;;
6394;SDS011;3230;42.588;23.358;2022-12-07T17:08:06;16.95;;;8.75;;
6394;SDS011;3230;42.588;23.358;2022-12-07T17:10:32;42.60;;;21.40;;
6394;SDS011;3230;42.588;23.358;2022-12-07T17:13:00;18.13;;;9.30;;
6394;SDS011;3230;42.588;23.358;2022-12-07T17:15:26;20.52;;;13.43;;
6394;SDS011;3230;42.588;23.358;2022-12-07T17:17:56;30.02;;;16.70;;
6394;SDS011;3230;42.588;23.358;2022-12-07T17:20:24;31.35;;;16.08;;
6394;SDS011;3230;42.588;23.358;2022-12-07T17:22:51;22.38;;;12.80;;
6394;SDS011;3230;42.588;23.358;2022-12-07T17:25:18;27.77;;;17.37;;
6394;SDS011;3230;42.588;23.358;2022-12-07T17:27:44;25.10;;;14.10;;
6394;SDS011;3230;42.588;23.358;2022-12-07T17:30:11;47.75;;;25.25;;
6394;SDS011;3230;42.588;23.358;2022-12-07T17:32:38;56.83;;;26.98;;
6394;SDS011;3230;42.588;23.358;2022-12-07T17:35:04;69.73;;;33.60;;